sensor_id;sensor_type;location;lat;lon;timestamp;pressure;altitude;pressure_sealevel;temperature;humidity
216;BME280;64590;48.81286795;9.14184224;2023-04-01T00:02:21;96909.41;;;9.50;74.95
216;BME280;64590;48.81286795;9.14184224;2023-04-01T00:04:48;96913.50;;;9.42;75.76
216;BME280;64590;48.81286795;9.14184224;2023-04-01T00:07:14;96912.66;;;9.45;75.49
216;BME280;64590;48.81286795;9.14184224;2023-04-01T00:09:41;96909.78;;;9.52;76.11
216;BME280;64590;48.81286795;9.14184224;2023-04-01T00:12:07;96914.75;;;9.65;74.97
216;BME280;64590;48.81286795;9.14184224;2023-04-01T00:14:35;96910.13;;;9.54;75.96
216;BME280;64590;48.81286795;9.14184224;2023-04-01T00:17:02;96905.94;;;9.70;74.48
216;BME280;64590;48.81286795;9.14184224;2023-04-01T00:19:29;96915.28;;;9.56;75.36
216;BME280;64590;48.81286795;9.14184224;2023-04-01T00:21:57;96905.69;;;9.60;75.67
216;BME280;64590;48.81286795;9.14184224;2023-04-01T00:24:24;96907.91;;;9.69;74.57
216;BME280;64590;48.81286795;9.14184224;2023-04-01T00:26:51;96920.00;;;9.55;74.91
216;BME280;64590;48.81286795;9.14184224;2023-04-01T00:29:17;96916.63;;;9.44;75.41
216;BME280;64590;48.81286795;9.14184224;2023-04-01T00:31:45;96918.03;;;9.56;75.12
216;BME280;64590;48.81286795;9.14184224;2023-04-01T00:34:13;96914.78;;;9.61;74.76
216;BME280;64590;48.81286795;9.14184224;2023-04-01T00:36:40;96917.78;;;9.70;74.70
216;BME280;64590;48.81286795;9.14184224;2023-04-01T00:39:06;96922.31;;;9.60;75.49
216;BME280;64590;48.81286795;9.14184224;2023-04-01T00:41:33;96924.22;;;9.63;74.93
216;BME280;64590;48.81286795;9.14184224;2023-04-01T00:44:19;96919.00;;;9.69;74.50
216;BME280;64590;48.81286795;9.14184224;2023-04-01T00:46:48;96917.91;;;9.63;75.52
216;BME280;64590;48.81286795;9.14184224;2023-04-01T00:49:16;96927.25;;;9.73;74.88
216;BME280;64590;48.81286795;9.14184224;2023-04-01T00:51:44;96919.59;;;9.80;74.95
216;BME280;64590;48.81286795;9.14184224;2023-04-01T00:54:14;96925.50;;;9.82;75.58
216;BME280;64590;48.81286795;9.14184224;2023-04-01T00:56:45;96924.84;;;9.75;75.02
216;BME280;64590;48.81286795;9.14184224;2023-04-01T00:59:18;96922.44;;;9.77;75.26
216;BME280;64590;48.81286795;9.14184224;2023-04-01T01:01:48;96926.47;;;9.49;76.29
216;BME280;64590;48.81286795;9.14184224;2023-04-01T01:04:23;96926.88;;;9.71;75.48
216;BME280;64590;48.81286795;9.14184224;2023-04-01T01:06:56;96930.50;;;9.68;76.25
216;BME280;64590;48.81286795;9.14184224;2023-04-01T01:09:31;96918.63;;;9.67;76.06
216;BME280;64590;48.81286795;9.14184224;2023-04-01T01:12:07;96922.25;;;9.64;76.15
216;BME280;64590;48.81286795;9.14184224;2023-04-01T01:14:48;96911.34;;;9.53;76.67
216;BME280;64590;48.81286795;9.14184224;2023-04-01T01:17:26;96918.81;;;9.56;75.97
216;BME280;64590;48.81286795;9.14184224;2023-04-01T01:23:19;96919.22;;;9.55;77.33
216;BME280;64590;48.81286795;9.14184224;2023-04-01T01:25:59;96919.34;;;9.71;77.21
216;BME280;64590;48.81286795;9.14184224;2023-04-01T01:28:41;96925.63;;;9.75;76.13
216;BME280;64590;48.81286795;9.14184224;2023-04-01T01:31:16;96924.38;;;9.56;77.35
216;BME280;64590;48.81286795;9.14184224;2023-04-01T01:33:54;96920.31;;;9.61;76.82
216;BME280;64590;48.81286795;9.14184224;2023-04-01T01:36:29;96921.47;;;9.63;77.61
216;BME280;64590;48.81286795;9.14184224;2023-04-01T01:39:00;96918.81;;;9.80;75.93
216;BME280;64590;48.81286795;9.14184224;2023-04-01T01:41:29;96921.66;;;9.76;77.21
216;BME280;64590;48.81286795;9.14184224;2023-04-01T01:43:56;96926.84;;;9.74;76.77
216;BME280;64590;48.81286795;9.14184224;2023-04-01T01:46:26;96927.19;;;9.53;78.70
216;BME280;64590;48.81286795;9.14184224;2023-04-01T01:48:54;96929.38;;;9.65;79.24
216;BME280;64590;48.81286795;9.14184224;2023-04-01T01:51:22;96927.19;;;9.53;80.02
216;BME280;64590;48.81286795;9.14184224;2023-04-01T01:53:50;96926.75;;;9.54;79.97
216;BME280;64590;48.81286795;9.14184224;2023-04-01T01:56:20;96923.63;;;9.52;80.04
216;BME280;64590;48.81286795;9.14184224;2023-04-01T01:58:51;96927.09;;;9.33;81.16
216;BME280;64590;48.81286795;9.14184224;2023-04-01T02:01:24;96918.25;;;9.42;81.54
216;BME280;64590;48.81286795;9.14184224;2023-04-01T02:03:51;96916.81;;;9.33;80.83
216;BME280;64590;48.81286795;9.14184224;2023-04-01T02:06:21;96919.94;;;9.35;80.39
216;BME280;64590;48.81286795;9.14184224;2023-04-01T02:08:52;96915.66;;;9.31;81.29
216;BME280;64590;48.81286795;9.14184224;2023-04-01T02:11:26;96917.94;;;9.36;80.51
216;BME280;64590;48.81286795;9.14184224;2023-04-01T02:13:55;96925.00;;;9.41;80.07
216;BME280;64590;48.81286795;9.14184224;2023-04-01T02:16:27;96918.69;;;9.40;79.80
216;BME280;64590;48.81286795;9.14184224;2023-04-01T02:18:56;96923.47;;;9.36;79.60
216;BME280;64590;48.81286795;9.14184224;2023-04-01T02:21:28;96934.81;;;9.18;79.93
216;BME280;64590;48.81286795;9.14184224;2023-04-01T02:24:00;96925.63;;;9.25;80.18
216;BME280;64590;48.81286795;9.14184224;2023-04-01T02:26:28;96924.50;;;9.22;80.80
216;BME280;64590;48.81286795;9.14184224;2023-04-01T02:28:57;96926.59;;;9.15;80.79
216;BME280;64590;48.81286795;9.14184224;2023-04-01T02:31:25;96920.16;;;9.21;80.34
216;BME280;64590;48.81286795;9.14184224;2023-04-01T02:33:52;96923.13;;;9.34;78.54
216;BME280;64590;48.81286795;9.14184224;2023-04-01T02:36:20;96919.22;;;9.31;79.73
216;BME280;64590;48.81286795;9.14184224;2023-04-01T02:38:47;96923.59;;;9.29;79.53
216;BME280;64590;48.81286795;9.14184224;2023-04-01T02:41:17;96921.72;;;9.22;80.51
216;BME280;64590;48.81286795;9.14184224;2023-04-01T02:43:43;96920.72;;;9.36;78.50
216;BME280;64590;48.81286795;9.14184224;2023-04-01T02:46:10;96918.63;;;9.17;80.16
216;BME280;64590;48.81286795;9.14184224;2023-04-01T02:48:37;96925.31;;;9.19;80.18
216;BME280;64590;48.81286795;9.14184224;2023-04-01T02:51:04;96909.19;;;9.14;80.28
216;BME280;64590;48.81286795;9.14184224;2023-04-01T02:53:31;96925.38;;;9.16;80.13
216;BME280;64590;48.81286795;9.14184224;2023-04-01T02:55:57;96923.97;;;9.31;78.06
216;BME280;64590;48.81286795;9.14184224;2023-04-01T02:58:25;96921.66;;;9.26;78.70
216;BME280;64590;48.81286795;9.14184224;2023-04-01T03:00:52;96924.06;;;9.24;79.00
216;BME280;64590;48.81286795;9.14184224;2023-04-01T03:03:18;96922.19;;;9.17;79.25
216;BME280;64590;48.81286795;9.14184224;2023-04-01T03:05:45;96929.28;;;9.18;79.04
216;BME280;64590;48.81286795;9.14184224;2023-04-01T03:08:12;96926.09;;;9.20;80.08
216;BME280;64590;48.81286795;9.14184224;2023-04-01T03:10:38;96932.13;;;9.15;79.80
216;BME280;64590;48.81286795;9.14184224;2023-04-01T03:13:05;96933.00;;;9.35;77.76
216;BME280;64590;48.81286795;9.14184224;2023-04-01T03:15:33;96924.34;;;9.33;78.18
216;BME280;64590;48.81286795;9.14184224;2023-04-01T03:18:00;96924.34;;;9.33;77.79
216;BME280;64590;48.81286795;9.14184224;2023-04-01T03:20:27;96929.28;;;9.18;78.29
216;BME280;64590;48.81286795;9.14184224;2023-04-01T03:22:53;96936.63;;;9.05;78.60
216;BME280;64590;48.81286795;9.14184224;2023-04-01T03:25:20;96923.91;;;9.07;78.34
216;BME280;64590;48.81286795;9.14184224;2023-04-01T03:27:46;96926.63;;;9.11;78.69
216;BME280;64590;48.81286795;9.14184224;2023-04-01T03:30:13;96931.75;;;9.13;77.86
216;BME280;64590;48.81286795;9.14184224;2023-04-01T03:32:49;96933.47;;;9.03;78.43
216;BME280;64590;48.81286795;9.14184224;2023-04-01T03:35:16;96931.59;;;9.23;77.13
216;BME280;64590;48.81286795;9.14184224;2023-04-01T03:37:45;96921.88;;;9.12;78.35
216;BME280;64590;48.81286795;9.14184224;2023-04-01T03:40:11;96934.88;;;9.15;78.41
216;BME280;64590;48.81286795;9.14184224;2023-04-01T03:42:38;96925.47;;;9.09;78.19
216;BME280;64590;48.81286795;9.14184224;2023-04-01T03:45:06;96922.09;;;8.97;79.45
216;BME280;64590;48.81286795;9.14184224;2023-04-01T03:47:33;96920.53;;;9.23;77.77
216;BME280;64590;48.81286795;9.14184224;2023-04-01T03:50:01;96926.84;;;9.24;77.12
216;BME280;64590;48.81286795;9.14184224;2023-04-01T03:52:27;96913.94;;;9.14;77.92
216;BME280;64590;48.81286795;9.14184224;2023-04-01T03:54:54;96914.66;;;9.18;77.12
216;BME280;64590;48.81286795;9.14184224;2023-04-01T03:57:22;96916.06;;;9.02;76.52
216;BME280;64590;48.81286795;9.14184224;2023-04-01T03:59:48;96906.78;;;9.16;76.22
216;BME280;64590;48.81286795;9.14184224;2023-04-01T04:02:15;96913.56;;;9.12;76.38
216;BME280;64590;48.81286795;9.14184224;2023-04-01T04:04:42;96906.00;;;9.16;75.75
216;BME280;64590;48.81286795;9.14184224;2023-04-01T04:07:10;96906.47;;;9.11;76.55
216;BME280;64590;48.81286795;9.14184224;2023-04-01T04:10:00;96896.31;;;9.04;75.26
216;BME280;64590;48.81286795;9.14184224;2023-04-01T04:12:27;96895.72;;;9.16;75.24
216;BME280;64590;48.81286795;9.14184224;2023-04-01T04:14:53;96899.63;;;9.19;75.84
216;BME280;64590;48.81286795;9.14184224;2023-04-01T04:17:20;96907.41;;;9.27;73.86
216;BME280;64590;48.81286795;9.14184224;2023-04-01T04:19:47;96902.91;;;9.10;75.37
216;BME280;64590;48.81286795;9.14184224;2023-04-01T04:22:16;96899.16;;;9.24;73.37
216;BME280;64590;48.81286795;9.14184224;2023-04-01T04:24:42;96896.84;;;9.19;73.71
216;BME280;64590;48.81286795;9.14184224;2023-04-01T04:27:11;96889.06;;;9.10;74.38
216;BME280;64590;48.81286795;9.14184224;2023-04-01T04:29:49;96897.97;;;8.98;75.40
216;BME280;64590;48.81286795;9.14184224;2023-04-01T04:32:16;96904.84;;;8.86;74.99
216;BME280;64590;48.81286795;9.14184224;2023-04-01T04:34:42;96890.34;;;9.05;73.66
216;BME280;64590;48.81286795;9.14184224;2023-04-01T04:37:09;96908.69;;;8.96;74.65
216;BME280;64590;48.81286795;9.14184224;2023-04-01T04:39:37;96913.16;;;8.86;75.43
216;BME280;64590;48.81286795;9.14184224;2023-04-01T04:42:05;96895.53;;;9.03;75.53
216;BME280;64590;48.81286795;9.14184224;2023-04-01T04:44:33;96891.22;;;8.99;74.52
216;BME280;64590;48.81286795;9.14184224;2023-04-01T04:47:00;96901.16;;;8.96;75.01
216;BME280;64590;48.81286795;9.14184224;2023-04-01T04:49:27;96902.66;;;9.01;75.62
216;BME280;64590;48.81286795;9.14184224;2023-04-01T04:51:54;96904.09;;;8.82;77.37
216;BME280;64590;48.81286795;9.14184224;2023-04-01T04:54:23;96896.81;;;8.95;75.34
216;BME280;64590;48.81286795;9.14184224;2023-04-01T04:56:55;96884.56;;;8.96;74.94
216;BME280;64590;48.81286795;9.14184224;2023-04-01T04:59:23;96906.00;;;8.89;75.29
216;BME280;64590;48.81286795;9.14184224;2023-04-01T05:02:01;96898.00;;;8.94;75.42
216;BME280;64590;48.81286795;9.14184224;2023-04-01T05:04:28;96891.81;;;8.87;75.57
216;BME280;64590;48.81286795;9.14184224;2023-04-01T05:06:55;96886.31;;;8.83;75.63
216;BME280;64590;48.81286795;9.14184224;2023-04-01T05:09:22;96888.47;;;8.99;75.09
216;BME280;64590;48.81286795;9.14184224;2023-04-01T05:11:49;96894.31;;;8.77;75.78
216;BME280;64590;48.81286795;9.14184224;2023-04-01T05:14:17;96891.75;;;8.90;76.55
216;BME280;64590;48.81286795;9.14184224;2023-04-01T05:16:53;96890.13;;;8.93;75.94
216;BME280;64590;48.81286795;9.14184224;2023-04-01T05:19:19;96879.47;;;8.91;75.76
216;BME280;64590;48.81286795;9.14184224;2023-04-01T05:21:46;96880.78;;;8.83;76.77
216;BME280;64590;48.81286795;9.14184224;2023-04-01T05:24:15;96879.00;;;8.96;75.57
216;BME280;64590;48.81286795;9.14184224;2023-04-01T05:26:42;96891.16;;;8.75;77.70
216;BME280;64590;48.81286795;9.14184224;2023-04-01T05:29:09;96876.78;;;8.88;75.97
216;BME280;64590;48.81286795;9.14184224;2023-04-01T05:31:38;96879.91;;;8.90;75.78
216;BME280;64590;48.81286795;9.14184224;2023-04-01T05:34:05;96864.34;;;8.99;76.07
216;BME280;64590;48.81286795;9.14184224;2023-04-01T05:36:32;96873.84;;;8.98;76.03
216;BME280;64590;48.81286795;9.14184224;2023-04-01T05:38:59;96876.78;;;8.88;76.56
216;BME280;64590;48.81286795;9.14184224;2023-04-01T05:41:27;96879.53;;;9.15;75.41
216;BME280;64590;48.81286795;9.14184224;2023-04-01T05:43:54;96870.97;;;9.29;74.97
216;BME280;64590;48.81286795;9.14184224;2023-04-01T05:46:40;96870.25;;;9.25;74.48
216;BME280;64590;48.81286795;9.14184224;2023-04-01T05:49:19;96863.22;;;9.20;74.75
216;BME280;64590;48.81286795;9.14184224;2023-04-01T05:51:47;96864.81;;;9.21;74.12
216;BME280;64590;48.81286795;9.14184224;2023-04-01T05:54:13;96851.44;;;9.40;73.06
216;BME280;64590;48.81286795;9.14184224;2023-04-01T05:56:42;96853.81;;;9.38;74.03
216;BME280;64590;48.81286795;9.14184224;2023-04-01T05:59:10;96859.09;;;9.32;73.57
216;BME280;64590;48.81286795;9.14184224;2023-04-01T06:01:36;96858.97;;;9.39;72.60
216;BME280;64590;48.81286795;9.14184224;2023-04-01T06:04:04;96856.19;;;9.39;73.03
216;BME280;64590;48.81286795;9.14184224;2023-04-01T06:06:32;96854.13;;;9.43;73.42
216;BME280;64590;48.81286795;9.14184224;2023-04-01T06:09:13;96853.00;;;9.41;73.31
216;BME280;64590;48.81286795;9.14184224;2023-04-01T06:11:56;96838.41;;;9.60;71.47
216;BME280;64590;48.81286795;9.14184224;2023-04-01T06:14:38;96834.69;;;9.47;72.49
216;BME280;64590;48.81286795;9.14184224;2023-04-01T06:17:19;96846.16;;;9.49;72.65
216;BME280;64590;48.81286795;9.14184224;2023-04-01T06:19:56;96843.88;;;9.63;71.30
216;BME280;64590;48.81286795;9.14184224;2023-04-01T06:25:54;96849.25;;;9.74;71.28
216;BME280;64590;48.81286795;9.14184224;2023-04-01T06:28:48;96851.28;;;9.70;71.25
216;BME280;64590;48.81286795;9.14184224;2023-04-01T06:31:25;96852.44;;;9.73;70.99
216;BME280;64590;48.81286795;9.14184224;2023-04-01T06:34:08;96842.38;;;9.82;71.63
216;BME280;64590;48.81286795;9.14184224;2023-04-01T06:36:59;96853.16;;;9.77;71.13
216;BME280;64590;48.81286795;9.14184224;2023-04-01T06:39:54;96853.28;;;9.70;71.43
216;BME280;64590;48.81286795;9.14184224;2023-04-01T06:42:33;96850.16;;;9.68;71.60
216;BME280;64590;48.81286795;9.14184224;2023-04-01T06:45:25;96854.03;;;9.74;71.31
216;BME280;64590;48.81286795;9.14184224;2023-04-01T06:48:24;96858.16;;;9.85;70.50
216;BME280;64590;48.81286795;9.14184224;2023-04-01T06:51:38;96838.41;;;9.60;72.52
216;BME280;64590;48.81286795;9.14184224;2023-04-01T06:54:32;96857.69;;;9.67;71.61
216;BME280;64590;48.81286795;9.14184224;2023-04-01T06:57:26;96854.91;;;9.67;71.82
216;BME280;64590;48.81286795;9.14184224;2023-04-01T06:59:58;96856.19;;;9.62;71.99
216;BME280;64590;48.81286795;9.14184224;2023-04-01T07:02:31;96859.47;;;9.77;72.04
216;BME280;64590;48.81286795;9.14184224;2023-04-01T07:05:04;96849.19;;;9.78;71.15
216;BME280;64590;48.81286795;9.14184224;2023-04-01T07:07:35;96863.22;;;9.67;72.15
216;BME280;64590;48.81286795;9.14184224;2023-04-01T07:10:13;96855.47;;;9.58;72.90
216;BME280;64590;48.81286795;9.14184224;2023-04-01T07:13:04;96860.34;;;9.74;72.56
216;BME280;64590;48.81286795;9.14184224;2023-04-01T07:15:59;96864.00;;;9.68;72.10
216;BME280;64590;48.81286795;9.14184224;2023-04-01T07:18:32;96867.31;;;9.82;72.06
216;BME280;64590;48.81286795;9.14184224;2023-04-01T07:21:02;96864.13;;;9.84;72.27
216;BME280;64590;48.81286795;9.14184224;2023-04-01T07:23:32;96870.66;;;9.94;72.01
216;BME280;64590;48.81286795;9.14184224;2023-04-01T07:26:19;96875.78;;;9.95;72.84
216;BME280;64590;48.81286795;9.14184224;2023-04-01T07:29:05;96876.13;;;9.97;71.76
216;BME280;64590;48.81286795;9.14184224;2023-04-01T07:32:09;96873.00;;;9.95;71.64
216;BME280;64590;48.81286795;9.14184224;2023-04-01T07:34:48;96879.22;;;10.03;71.30
216;BME280;64590;48.81286795;9.14184224;2023-04-01T07:37:22;96889.09;;;10.04;72.78
216;BME280;64590;48.81286795;9.14184224;2023-04-01T07:39:58;96882.84;;;10.00;71.66
216;BME280;64590;48.81286795;9.14184224;2023-04-01T07:42:42;96891.75;;;9.87;72.21
216;BME280;64590;48.81286795;9.14184224;2023-04-01T07:45:18;96890.13;;;9.90;72.25
216;BME280;64590;48.81286795;9.14184224;2023-04-01T07:47:59;96884.88;;;9.96;71.94
216;BME280;64590;48.81286795;9.14184224;2023-04-01T07:50:34;96889.88;;;10.04;71.71
216;BME280;64590;48.81286795;9.14184224;2023-04-01T07:53:10;96879.34;;;9.96;72.07
216;BME280;64590;48.81286795;9.14184224;2023-04-01T07:55:44;96880.84;;;10.00;72.52
216;BME280;64590;48.81286795;9.14184224;2023-04-01T07:58:20;96882.50;;;10.17;71.38
216;BME280;64590;48.81286795;9.14184224;2023-04-01T08:00:57;96882.59;;;10.34;71.78
216;BME280;64590;48.81286795;9.14184224;2023-04-01T08:03:38;96885.00;;;10.32;71.36
216;BME280;64590;48.81286795;9.14184224;2023-04-01T08:06:14;96884.88;;;10.39;70.89
216;BME280;64590;48.81286795;9.14184224;2023-04-01T08:08:54;96900.50;;;10.29;71.28
216;BME280;64590;48.81286795;9.14184224;2023-04-01T08:12:00;96884.28;;;10.08;71.99
216;BME280;64590;48.81286795;9.14184224;2023-04-01T08:14:56;96880.66;;;10.31;72.29
216;BME280;64590;48.81286795;9.14184224;2023-04-01T08:17:52;96892.84;;;10.37;71.87
216;BME280;64590;48.81286795;9.14184224;2023-04-01T08:20:32;96887.97;;;10.21;71.13
216;BME280;64590;48.81286795;9.14184224;2023-04-01T08:23:07;96897.63;;;10.13;70.98
216;BME280;64590;48.81286795;9.14184224;2023-04-01T08:25:40;96887.41;;;10.10;72.00
216;BME280;64590;48.81286795;9.14184224;2023-04-01T08:28:14;96885.94;;;10.25;72.28
216;BME280;64590;48.81286795;9.14184224;2023-04-01T08:30:47;96897.31;;;10.31;71.55
216;BME280;64590;48.81286795;9.14184224;2023-04-01T08:33:20;96901.53;;;10.15;73.00
216;BME280;64590;48.81286795;9.14184224;2023-04-01T08:35:55;96901.06;;;10.20;73.69
216;BME280;64590;48.81286795;9.14184224;2023-04-01T08:38:28;96903.69;;;10.08;74.16
216;BME280;64590;48.81286795;9.14184224;2023-04-01T08:40:59;96902.66;;;9.98;75.10
216;BME280;64590;48.81286795;9.14184224;2023-04-01T08:43:53;96903.19;;;9.89;76.06
216;BME280;64590;48.81286795;9.14184224;2023-04-01T08:49:43;96905.25;;;9.62;79.30
216;BME280;64590;48.81286795;9.14184224;2023-04-01T08:52:33;96895.63;;;9.47;79.75
216;BME280;64590;48.81286795;9.14184224;2023-04-01T08:55:25;96896.59;;;9.60;79.36
216;BME280;64590;48.81286795;9.14184224;2023-04-01T08:58:26;96890.50;;;9.69;80.80
216;BME280;64590;48.81286795;9.14184224;2023-04-01T09:01:25;96900.22;;;9.57;80.35
216;BME280;64590;48.81286795;9.14184224;2023-04-01T09:04:14;96899.53;;;9.73;80.06
216;BME280;64590;48.81286795;9.14184224;2023-04-01T09:06:55;96892.44;;;9.72;78.97
216;BME280;64590;48.81286795;9.14184224;2023-04-01T09:09:50;96900.03;;;9.68;80.88
216;BME280;64590;48.81286795;9.14184224;2023-04-01T09:15:42;96896.16;;;9.85;78.41
216;BME280;64590;48.81286795;9.14184224;2023-04-01T09:21:24;96902.53;;;10.05;78.32
216;BME280;64590;48.81286795;9.14184224;2023-04-01T09:24:23;96901.19;;;10.13;78.11
216;BME280;64590;48.81286795;9.14184224;2023-04-01T09:27:03;96901.19;;;10.13;77.00
216;BME280;64590;48.81286795;9.14184224;2023-04-01T09:29:58;96913.59;;;10.29;76.36
216;BME280;64590;48.81286795;9.14184224;2023-04-01T09:32:42;96914.56;;;10.18;74.10
216;BME280;64590;48.81286795;9.14184224;2023-04-01T09:35:23;96909.84;;;10.15;74.78
216;BME280;64590;48.81286795;9.14184224;2023-04-01T09:38:00;96913.13;;;10.10;75.99
216;BME280;64590;48.81286795;9.14184224;2023-04-01T09:40:38;96921.09;;;10.08;76.03
216;BME280;64590;48.81286795;9.14184224;2023-04-01T09:43:26;96928.44;;;9.95;75.20
216;BME280;64590;48.81286795;9.14184224;2023-04-01T09:46:06;96912.69;;;9.92;75.21
216;BME280;64590;48.81286795;9.14184224;2023-04-01T09:49:08;96919.13;;;9.85;75.87
216;BME280;64590;48.81286795;9.14184224;2023-04-01T09:51:44;96928.88;;;9.94;76.15
216;BME280;64590;48.81286795;9.14184224;2023-04-01T09:54:27;96910.25;;;9.94;74.78
216;BME280;64590;48.81286795;9.14184224;2023-04-01T09:57:13;96923.63;;;9.99;76.70
216;BME280;64590;48.81286795;9.14184224;2023-04-01T10:00:08;96922.94;;;10.15;74.67
216;BME280;64590;48.81286795;9.14184224;2023-04-01T10:03:28;96922.84;;;10.22;73.06
216;BME280;64590;48.81286795;9.14184224;2023-04-01T10:09:39;96927.47;;;10.05;72.53
216;BME280;64590;48.81286795;9.14184224;2023-04-01T10:15:40;96923.56;;;10.26;70.89
216;BME280;64590;48.81286795;9.14184224;2023-04-01T10:18:51;96931.38;;;10.31;71.72
216;BME280;64590;48.81286795;9.14184224;2023-04-01T10:21:47;96934.44;;;10.57;71.55
216;BME280;64590;48.81286795;9.14184224;2023-04-01T10:24:47;96921.34;;;10.77;68.93
216;BME280;64590;48.81286795;9.14184224;2023-04-01T10:27:44;96926.06;;;10.60;69.73
216;BME280;64590;48.81286795;9.14184224;2023-04-01T10:31:11;96920.22;;;10.55;71.14
216;BME280;64590;48.81286795;9.14184224;2023-04-01T10:34:17;96928.59;;;10.51;70.79
216;BME280;64590;48.81286795;9.14184224;2023-04-01T10:36:53;96946.09;;;10.48;70.44
216;BME280;64590;48.81286795;9.14184224;2023-04-01T10:39:37;96922.28;;;10.31;70.96
216;BME280;64590;48.81286795;9.14184224;2023-04-01T10:42:40;96928.53;;;10.35;69.51
216;BME280;64590;48.81286795;9.14184224;2023-04-01T10:45:56;96932.66;;;10.27;69.43
216;BME280;64590;48.81286795;9.14184224;2023-04-01T10:51:50;96925.91;;;10.47;70.74
216;BME280;64590;48.81286795;9.14184224;2023-04-01T10:54:46;96931.75;;;10.73;69.33
216;BME280;64590;48.81286795;9.14184224;2023-04-01T10:57:58;96942.06;;;10.72;69.85
216;BME280;64590;48.81286795;9.14184224;2023-04-01T11:05:05;96941.06;;;10.63;70.25
216;BME280;64590;48.81286795;9.14184224;2023-04-01T11:08:08;96944.81;;;10.92;69.84
216;BME280;64590;48.81286795;9.14184224;2023-04-01T11:14:26;96940.31;;;10.98;68.21
216;BME280;64590;48.81286795;9.14184224;2023-04-01T11:17:40;96953.84;;;10.96;67.48
216;BME280;64590;48.81286795;9.14184224;2023-04-01T11:23:29;96944.28;;;11.17;67.90
216;BME280;64590;48.81286795;9.14184224;2023-04-01T11:26:04;96957.13;;;11.27;66.41
216;BME280;64590;48.81286795;9.14184224;2023-04-01T11:29:19;96944.03;;;11.28;66.38
216;BME280;64590;48.81286795;9.14184224;2023-04-01T11:31:58;96938.75;;;11.33;65.71
216;BME280;64590;48.81286795;9.14184224;2023-04-01T11:34:43;96950.34;;;11.28;65.95
216;BME280;64590;48.81286795;9.14184224;2023-04-01T11:37:35;96946.47;;;11.26;65.31
216;BME280;64590;48.81286795;9.14184224;2023-04-01T11:40:35;96945.63;;;11.09;67.45
216;BME280;64590;48.81286795;9.14184224;2023-04-01T11:43:25;96949.31;;;11.22;67.05
216;BME280;64590;48.81286795;9.14184224;2023-04-01T11:46:17;96948.56;;;11.38;65.74
216;BME280;64590;48.81286795;9.14184224;2023-04-01T11:48:56;96948.56;;;11.38;65.83
216;BME280;64590;48.81286795;9.14184224;2023-04-01T11:51:39;96961.22;;;11.23;65.65
216;BME280;64590;48.81286795;9.14184224;2023-04-01T11:54:20;96954.16;;;11.18;66.40
216;BME280;64590;48.81286795;9.14184224;2023-04-01T11:57:02;96966.19;;;11.31;66.30
216;BME280;64590;48.81286795;9.14184224;2023-04-01T12:00:04;96952.41;;;11.08;66.53
216;BME280;64590;48.81286795;9.14184224;2023-04-01T12:03:00;96962.03;;;11.03;66.67
216;BME280;64590;48.81286795;9.14184224;2023-04-01T12:05:40;96967.00;;;11.12;68.04
216;BME280;64590;48.81286795;9.14184224;2023-04-01T12:08:27;96957.13;;;11.27;67.34
216;BME280;64590;48.81286795;9.14184224;2023-04-01T12:11:00;96954.16;;;11.18;68.17
216;BME280;64590;48.81286795;9.14184224;2023-04-01T12:13:39;96970.53;;;11.32;67.69
216;BME280;64590;48.81286795;9.14184224;2023-04-01T12:16:24;96965.41;;;11.31;68.59
216;BME280;64590;48.81286795;9.14184224;2023-04-01T12:19:00;96978.72;;;11.20;69.08
216;BME280;64590;48.81286795;9.14184224;2023-04-01T12:21:36;96981.03;;;11.05;70.56
216;BME280;64590;48.81286795;9.14184224;2023-04-01T12:24:32;96971.50;;;11.06;72.15
216;BME280;64590;48.81286795;9.14184224;2023-04-01T12:27:16;96975.59;;;11.18;70.81
216;BME280;64590;48.81286795;9.14184224;2023-04-01T12:30:02;96974.91;;;11.14;70.89
216;BME280;64590;48.81286795;9.14184224;2023-04-01T12:32:40;96980.72;;;11.19;69.31
216;BME280;64590;48.81286795;9.14184224;2023-04-01T12:35:18;96982.09;;;11.11;68.73
216;BME280;64590;48.81286795;9.14184224;2023-04-01T12:37:55;96979.25;;;11.15;68.88
216;BME280;64590;48.81286795;9.14184224;2023-04-01T12:40:37;96973.66;;;11.35;67.24
216;BME280;64590;48.81286795;9.14184224;2023-04-01T12:43:19;96980.50;;;11.30;68.87
216;BME280;64590;48.81286795;9.14184224;2023-04-01T12:45:55;96977.84;;;11.59;67.46
216;BME280;64590;48.81286795;9.14184224;2023-04-01T12:48:35;96981.50;;;11.72;66.05
216;BME280;64590;48.81286795;9.14184224;2023-04-01T12:51:21;96976.66;;;11.76;65.72
216;BME280;64590;48.81286795;9.14184224;2023-04-01T12:56:59;96985.47;;;11.55;66.76
216;BME280;64590;48.81286795;9.14184224;2023-04-01T12:59:45;96982.13;;;11.80;65.89
216;BME280;64590;48.81286795;9.14184224;2023-04-01T13:02:22;96998.22;;;11.88;65.74
216;BME280;64590;48.81286795;9.14184224;2023-04-01T13:05:23;96984.28;;;11.72;65.49
216;BME280;64590;48.81286795;9.14184224;2023-04-01T13:08:02;96993.84;;;11.71;66.58
216;BME280;64590;48.81286795;9.14184224;2023-04-01T13:10:48;96993.94;;;11.68;65.65
216;BME280;64590;48.81286795;9.14184224;2023-04-01T13:14:08;96999.19;;;11.46;66.50
216;BME280;64590;48.81286795;9.14184224;2023-04-01T13:16:45;97016.97;;;11.32;68.19
216;BME280;64590;48.81286795;9.14184224;2023-04-01T13:19:18;97007.66;;;11.22;67.80
216;BME280;64590;48.81286795;9.14184224;2023-04-01T13:21:54;97015.56;;;11.04;67.92